createdAt,value
2023-05-08T00:00:42.360Z,102413.56
2023-05-08T00:03:24.080Z,102410.77
2023-05-08T00:05:56.980Z,102414.97
2023-05-08T00:08:28.864Z,102417.23
2023-05-08T00:11:00.794Z,102418.02
2023-05-08T00:13:33.667Z,102415.73
2023-05-08T00:16:05.732Z,102417.04
2023-05-08T00:18:39.027Z,102414.83
2023-05-08T00:21:11.446Z,102413.27
2023-05-08T00:23:44.930Z,102409.73
2023-05-08T00:26:16.889Z,102409.80
2023-05-08T00:28:50.266Z,102408.50
2023-05-08T00:31:22.516Z,102412.02
2023-05-08T00:33:58.496Z,102412.94
2023-05-08T00:36:32.770Z,102413.50
2023-05-08T00:39:06.136Z,102411.98
2023-05-08T00:41:39.024Z,102414.63
2023-05-08T00:44:19.388Z,102417.10
2023-05-08T00:46:51.841Z,102419.20
2023-05-08T00:49:26.254Z,102416.63
2023-05-08T00:51:59.922Z,102419.73
2023-05-08T00:54:33.840Z,102422.69
2023-05-08T00:57:09.388Z,102427.40
2023-05-08T00:59:46.876Z,102428.83
2023-05-08T01:02:18.751Z,102433.45
2023-05-08T01:04:55.784Z,102434.96
2023-05-08T01:07:29.002Z,102436.67
2023-05-08T01:10:01.570Z,102439.36
2023-05-08T01:12:46.744Z,102436.67
2023-05-08T01:15:25.601Z,102439.04
2023-05-08T01:18:12.446Z,102440.94
2023-05-08T01:20:52.119Z,102442.89
2023-05-08T01:23:56.806Z,102447.08
2023-05-08T01:27:00.076Z,102449.81
2023-05-08T01:29:51.929Z,102456.44
2023-05-08T01:32:26.289Z,102454.69
2023-05-08T01:35:11.036Z,102452.05
2023-05-08T01:37:53.599Z,102450.62
2023-05-08T01:40:36.731Z,102454.66
2023-05-08T01:43:21.783Z,102453.31
2023-05-08T01:45:55.957Z,102453.34
2023-05-08T01:48:33.880Z,102453.55
2023-05-08T01:51:12.950Z,102450.66
2023-05-08T01:53:48.544Z,102450.34
2023-05-08T01:56:29.013Z,102450.55
2023-05-08T01:59:03.729Z,102461.09
2023-05-08T02:01:38.799Z,102462.80
2023-05-08T02:04:15.115Z,102465.41
2023-05-08T02:06:49.229Z,102467.23
2023-05-08T02:09:23.094Z,102465.67
2023-05-08T02:11:55.833Z,102466.42
2023-05-08T02:14:31.056Z,102463.84
2023-05-08T02:17:06.152Z,102467.34
2023-05-08T02:19:41.137Z,102471.95
2023-05-08T02:22:14.840Z,102476.34
2023-05-08T02:24:55.651Z,102477.02
2023-05-08T02:27:31.684Z,102476.38
2023-05-08T02:30:08.009Z,102478.17
2023-05-08T02:32:43.010Z,102475.91
2023-05-08T02:35:18.190Z,102480.77
2023-05-08T02:37:53.810Z,102482.48
2023-05-08T02:40:29.745Z,102482.31
2023-05-08T02:43:02.358Z,102485.27
2023-05-08T02:45:41.266Z,102490.61
2023-05-08T02:48:21.100Z,102490.48
2023-05-08T02:51:00.335Z,102494.27
2023-05-08T02:53:38.413Z,102494.73
2023-05-08T02:56:16.618Z,102497.35
2023-05-08T02:58:58.076Z,102499.14
2023-05-08T03:01:43.047Z,102498.28
2023-05-08T03:04:22.058Z,102501.70
2023-05-08T03:06:58.857Z,102500.92
2023-05-08T03:09:39.968Z,102495.18
2023-05-08T03:12:16.761Z,102495.63
2023-05-08T03:14:58.793Z,102498.27
2023-05-08T03:17:33.933Z,102502.89
2023-05-08T03:20:09.528Z,102504.46
2023-05-08T03:22:43.379Z,102506.01
2023-05-08T03:25:20.114Z,102504.25
2023-05-08T03:27:53.215Z,102504.33
2023-05-08T03:30:28.455Z,102508.34
2023-05-08T03:33:08.267Z,102508.56
2023-05-08T03:35:39.717Z,102508.08
2023-05-08T03:38:15.305Z,102506.92
2023-05-08T03:40:48.890Z,102511.42
2023-05-08T03:43:21.411Z,102512.68
2023-05-08T03:45:55.622Z,102516.87
2023-05-08T03:48:29.317Z,102517.55
2023-05-08T03:51:06.674Z,102515.35
2023-05-08T03:53:41.798Z,102512.27
2023-05-08T03:56:13.786Z,102509.33
2023-05-08T03:58:55.229Z,102511.85
2023-05-08T04:01:33.638Z,102517.45
2023-05-08T04:04:13.066Z,102517.17
2023-05-08T04:06:50.906Z,102513.00
2023-05-08T04:09:35.737Z,102520.27
2023-05-08T04:12:10.929Z,102520.84
2023-05-08T04:14:58.036Z,102520.23
2023-05-08T04:17:56.750Z,102523.11
2023-05-08T04:20:32.228Z,102522.44
2023-05-08T04:23:07.962Z,102528.88
2023-05-08T04:25:42.263Z,102528.50
2023-05-08T04:28:16.009Z,102531.67
2023-05-08T04:30:50.505Z,102536.74
2023-05-08T04:33:23.616Z,102539.35
2023-05-08T04:35:56.857Z,102542.28
2023-05-08T04:38:28.589Z,102545.30
2023-05-08T04:41:02.602Z,102544.56
2023-05-08T04:43:35.249Z,102547.58
2023-05-08T04:46:09.000Z,102550.12
2023-05-08T04:48:42.626Z,102546.65
2023-05-08T04:51:16.814Z,102551.38
2023-05-08T04:53:49.171Z,102556.55
2023-05-08T04:56:21.391Z,102558.48
2023-05-08T04:58:53.827Z,102560.79
2023-05-08T05:01:26.382Z,102562.72
2023-05-08T05:04:03.155Z,102565.54
2023-05-08T05:06:34.902Z,102568.83
2023-05-08T05:09:08.556Z,102571.08
2023-05-08T05:11:43.577Z,102571.88
2023-05-08T05:14:14.643Z,102567.91
2023-05-08T05:16:48.058Z,102566.29
2023-05-08T05:19:20.282Z,102568.41
2023-05-08T05:21:51.806Z,102568.13
2023-05-08T05:24:24.529Z,102569.64
2023-05-08T05:26:57.927Z,102566.58
2023-05-08T05:29:31.045Z,102570.09
2023-05-08T05:32:03.940Z,102570.13
2023-05-08T05:34:40.183Z,102565.21
2023-05-08T05:37:13.113Z,102567.60
2023-05-08T05:39:45.876Z,102567.60
2023-05-08T05:42:17.467Z,102567.86
2023-05-08T05:44:50.305Z,102566.03
2023-05-08T05:47:22.609Z,102568.50
2023-05-08T05:49:55.518Z,102568.37
2023-05-08T05:52:28.812Z,102569.82
2023-05-08T05:55:03.520Z,102564.52
2023-05-08T05:57:35.830Z,102568.84
2023-05-08T06:00:14.380Z,102568.48
2023-05-08T06:02:49.235Z,102570.40
2023-05-08T06:05:23.300Z,102572.36
2023-05-08T06:07:57.165Z,102572.72
2023-05-08T06:10:30.452Z,102576.66
2023-05-08T06:13:02.641Z,102577.23
2023-05-08T06:15:35.777Z,102582.44
2023-05-08T06:18:08.600Z,102582.92
2023-05-08T06:20:40.386Z,102584.69
2023-05-08T06:23:13.410Z,102583.09
2023-05-08T06:25:45.942Z,102580.86
2023-05-08T06:28:19.891Z,102584.89
2023-05-08T06:30:59.221Z,102586.00
2023-05-08T06:33:37.087Z,102584.19
2023-05-08T06:36:12.971Z,102584.88
2023-05-08T06:38:49.386Z,102582.74
2023-05-08T06:41:22.899Z,102581.53
2023-05-08T06:43:57.865Z,102582.40
2023-05-08T06:46:31.378Z,102577.41
2023-05-08T06:49:07.254Z,102574.89
2023-05-08T06:51:43.881Z,102578.27
2023-05-08T06:54:20.083Z,102576.82
2023-05-08T06:56:56.287Z,102577.65
2023-05-08T06:59:28.257Z,102579.08
2023-05-08T07:02:01.840Z,102575.69
2023-05-08T07:04:36.311Z,102577.27
2023-05-08T07:07:08.596Z,102578.70
2023-05-08T07:09:45.158Z,102579.27
2023-05-08T07:12:18.864Z,102582.89
2023-05-08T07:14:50.621Z,102582.25
2023-05-08T07:17:30.590Z,102587.05
2023-05-08T07:20:02.776Z,102586.43
2023-05-08T07:22:36.230Z,102584.58
2023-05-08T07:25:12.914Z,102581.80
2023-05-08T07:27:45.973Z,102583.11
2023-05-08T07:30:20.651Z,102579.88
2023-05-08T07:32:55.150Z,102573.30
2023-05-08T07:35:26.133Z,102575.69
2023-05-08T07:37:58.926Z,102572.21
2023-05-08T07:40:31.526Z,102572.02
2023-05-08T07:43:04.623Z,102572.23
2023-05-08T07:45:37.717Z,102574.17
2023-05-08T07:48:10.470Z,102576.80
2023-05-08T07:50:42.667Z,102571.37
2023-05-08T07:53:17.177Z,102563.24
2023-05-08T07:55:53.047Z,102564.06
2023-05-08T07:58:25.184Z,102564.98
2023-05-08T08:00:57.087Z,102567.65
2023-05-08T08:03:27.747Z,102569.44
2023-05-08T08:06:00.216Z,102562.94
2023-05-08T08:08:33.804Z,102562.41
2023-05-08T08:11:08.312Z,102567.65
2023-05-08T08:13:40.027Z,102567.38
2023-05-08T08:16:12.830Z,102568.85
2023-05-08T08:18:47.668Z,102571.80
2023-05-08T08:21:20.012Z,102570.34
2023-05-08T08:23:52.283Z,102568.27
2023-05-08T08:26:25.324Z,102559.09
2023-05-08T08:28:57.644Z,102557.16
2023-05-08T08:31:32.504Z,102552.27
2023-05-08T08:34:04.753Z,102555.82
2023-05-08T08:36:36.594Z,102554.23
2023-05-08T08:39:12.501Z,102549.80
2023-05-08T08:41:47.192Z,102543.32
2023-05-08T08:44:19.840Z,102540.50
2023-05-08T08:46:56.189Z,102539.77
2023-05-08T08:49:32.322Z,102540.75
2023-05-08T08:52:09.088Z,102539.88
2023-05-08T08:54:47.522Z,102538.60
2023-05-08T08:57:21.026Z,102538.98
2023-05-08T08:59:54.022Z,102532.94
2023-05-08T09:02:29.074Z,102530.12
2023-05-08T09:05:02.420Z,102534.77
2023-05-08T09:07:35.326Z,102531.98
2023-05-08T09:10:16.591Z,102535.95
2023-05-08T09:12:49.547Z,102530.30
2023-05-08T09:15:25.036Z,102523.85
2023-05-08T09:17:57.755Z,102528.55
2023-05-08T09:20:30.082Z,102522.94
2023-05-08T09:23:04.156Z,102524.17
2023-05-08T09:25:48.544Z,102523.44
2023-05-08T09:28:21.324Z,102524.48
2023-05-08T09:30:56.191Z,102521.50
2023-05-08T09:33:31.194Z,102523.54
2023-05-08T09:36:04.192Z,102518.07
2023-05-08T09:38:42.163Z,102513.06
2023-05-08T09:41:17.067Z,102516.21
2023-05-08T09:44:04.239Z,102510.42
2023-05-08T09:46:38.283Z,102510.21
2023-05-08T09:49:20.361Z,102504.90
2023-05-08T09:51:56.388Z,102504.90
2023-05-08T09:54:29.326Z,102500.22
2023-05-08T09:57:01.984Z,102499.72
2023-05-08T09:59:34.417Z,102496.88
2023-05-08T10:02:15.865Z,102494.96
2023-05-08T10:04:52.037Z,102489.14
2023-05-08T10:07:33.162Z,102490.63
2023-05-08T10:10:11.171Z,102487.82
2023-05-08T10:12:45.162Z,102488.52
2023-05-08T10:15:18.332Z,102490.48
2023-05-08T10:17:57.001Z,102484.97
2023-05-08T10:20:33.595Z,102486.42
2023-05-08T10:23:11.141Z,102493.20
2023-05-08T10:25:48.849Z,102496.68
2023-05-08T10:28:29.947Z,102495.56
2023-05-08T10:31:04.755Z,102487.33
2023-05-08T10:33:41.469Z,102485.88
2023-05-08T10:36:12.752Z,102479.48
2023-05-08T10:38:48.507Z,102476.91
2023-05-08T10:41:24.668Z,102482.22
2023-05-08T10:44:00.681Z,102472.79
2023-05-08T10:46:42.569Z,102476.87
2023-05-08T10:49:24.271Z,102476.76
2023-05-08T10:52:09.354Z,102471.18
2023-05-08T10:55:06.264Z,102477.86
2023-05-08T10:57:39.150Z,102473.52
2023-05-08T11:00:11.819Z,102465.66
2023-05-08T11:02:50.266Z,102468.91
2023-05-08T11:05:24.521Z,102470.14
2023-05-08T11:08:01.212Z,102467.30
2023-05-08T11:10:37.170Z,102459.26
2023-05-08T11:13:10.440Z,102457.94
2023-05-08T11:15:51.330Z,102454.39
2023-05-08T11:18:28.101Z,102450.46
2023-05-08T11:21:14.566Z,102447.85
2023-05-08T11:23:57.373Z,102444.27
2023-05-08T11:26:42.037Z,102448.22
2023-05-08T11:29:21.514Z,102448.11
2023-05-08T11:31:55.375Z,102444.47
2023-05-08T11:34:49.975Z,102445.46
2023-05-08T11:37:24.606Z,102442.11
2023-05-08T11:40:36.662Z,102444.80
2023-05-08T11:43:27.427Z,102438.61
2023-05-08T11:46:05.567Z,102432.73
2023-05-08T11:48:38.416Z,102432.83
2023-05-08T11:51:13.031Z,102432.98
2023-05-08T11:53:47.682Z,102434.12
2023-05-08T11:56:20.536Z,102434.89
2023-05-08T11:59:04.790Z,102435.06
2023-05-08T12:01:37.699Z,102430.16
2023-05-08T12:04:11.259Z,102421.80
2023-05-08T12:06:43.069Z,102424.40
2023-05-08T12:09:18.354Z,102422.67
2023-05-08T12:11:56.109Z,102415.11
2023-05-08T12:14:28.787Z,102414.00
2023-05-08T12:17:03.656Z,102419.69
2023-05-08T12:19:37.434Z,102412.29
2023-05-08T12:22:11.058Z,102410.58
2023-05-08T12:24:45.331Z,102408.85
2023-05-08T12:27:16.999Z,102403.38
2023-05-08T12:29:49.070Z,102404.41
2023-05-08T12:32:22.829Z,102400.33
2023-05-08T12:34:55.568Z,102402.38
2023-05-08T12:37:30.106Z,102398.33
2023-05-08T12:40:03.656Z,102401.08
2023-05-08T12:42:50.106Z,102395.75
2023-05-08T12:45:23.072Z,102390.35
2023-05-08T12:47:56.574Z,102391.98
2023-05-08T12:50:31.077Z,102381.23
2023-05-08T12:53:05.969Z,102380.80
2023-05-08T12:55:45.190Z,102379.75
2023-05-08T12:58:18.724Z,102379.79
2023-05-08T13:00:53.877Z,102379.43
2023-05-08T13:03:28.107Z,102376.98
2023-05-08T13:06:02.168Z,102372.77
2023-05-08T13:08:36.305Z,102369.57
2023-05-08T13:11:08.855Z,102368.36
2023-05-08T13:13:44.207Z,102364.25
2023-05-08T13:16:15.754Z,102366.39
2023-05-08T13:18:47.924Z,102362.70
2023-05-08T13:21:19.970Z,102364.92
2023-05-08T13:23:51.488Z,102363.66
2023-05-08T13:26:25.767Z,102359.66
2023-05-08T13:28:58.228Z,102355.11
2023-05-08T13:31:30.390Z,102357.55
2023-05-08T13:34:02.652Z,102353.76
2023-05-08T13:36:35.102Z,102354.30
2023-05-08T13:39:08.583Z,102352.58
2023-05-08T13:41:41.246Z,102352.83
2023-05-08T13:44:13.958Z,102347.02
2023-05-08T13:46:47.119Z,102344.74
2023-05-08T13:49:20.108Z,102339.65
2023-05-08T13:51:57.280Z,102339.17
2023-05-08T13:54:31.209Z,102336.70
2023-05-08T13:57:04.281Z,102334.13
2023-05-08T13:59:39.288Z,102335.20
2023-05-08T14:02:14.201Z,102333.42
2023-05-08T14:04:47.487Z,102330.08
2023-05-08T14:07:19.985Z,102326.48
2023-05-08T14:09:53.221Z,102318.94
2023-05-08T14:12:24.533Z,102320.10
2023-05-08T14:14:56.981Z,102322.30
2023-05-08T14:17:30.631Z,102322.56
2023-05-08T14:20:02.791Z,102321.63
2023-05-08T14:22:34.427Z,102321.33
2023-05-08T14:25:09.818Z,102323.13
2023-05-08T14:27:46.666Z,102318.45
2023-05-08T14:30:16.932Z,102318.29
2023-05-08T14:32:56.085Z,102318.63
2023-05-08T14:35:28.046Z,102318.35
2023-05-08T14:38:01.055Z,102316.45
2023-05-08T14:40:35.076Z,102319.65
2023-05-08T14:43:07.731Z,102319.34
2023-05-08T14:45:42.400Z,102319.50
2023-05-08T14:48:17.152Z,102314.46
2023-05-08T14:50:50.348Z,102312.39
2023-05-08T14:53:22.765Z,102313.77
2023-05-08T14:55:52.811Z,102309.38
2023-05-08T14:58:25.384Z,102312.45
2023-05-08T15:00:57.034Z,102310.45
2023-05-08T15:03:30.207Z,102305.27
2023-05-08T15:06:01.875Z,102306.66
2023-05-08T15:08:34.980Z,102306.33
2023-05-08T15:11:10.353Z,102304.27
2023-05-08T15:13:47.629Z,102302.51
2023-05-08T15:16:19.613Z,102302.92
2023-05-08T15:18:52.508Z,102301.00
2023-05-08T15:21:27.898Z,102294.65
2023-05-08T15:24:02.631Z,102297.27
2023-05-08T15:26:34.993Z,102291.00
2023-05-08T15:29:06.798Z,102282.65
2023-05-08T15:31:40.539Z,102283.73
2023-05-08T15:34:13.544Z,102281.95
2023-05-08T15:36:45.512Z,102280.53
2023-05-08T15:39:18.676Z,102283.54
2023-05-08T15:41:54.897Z,102287.14
2023-05-08T15:44:28.693Z,102291.03
2023-05-08T15:47:06.952Z,102286.04
2023-05-08T15:49:36.901Z,102283.86
2023-05-08T15:52:08.394Z,102288.23
2023-05-08T15:54:43.806Z,102288.51
2023-05-08T15:57:16.785Z,102284.25
2023-05-08T15:59:50.048Z,102286.06
2023-05-08T16:02:25.052Z,102283.70
2023-05-08T16:04:57.855Z,102283.41
2023-05-08T16:07:38.012Z,102283.23
2023-05-08T16:10:16.534Z,102272.13
2023-05-08T16:12:49.917Z,102271.34
2023-05-08T16:15:21.388Z,102270.17
2023-05-08T16:17:52.976Z,102269.36
2023-05-08T16:20:27.307Z,102266.98
2023-05-08T16:23:07.041Z,102268.13
2023-05-08T16:25:38.657Z,102269.86
2023-05-08T16:28:11.338Z,102269.91
2023-05-08T16:30:45.036Z,102270.30
2023-05-08T16:33:16.576Z,102272.23
2023-05-08T16:35:50.542Z,102268.95
2023-05-08T16:38:24.396Z,102270.59
2023-05-08T16:40:56.010Z,102274.13
2023-05-08T16:43:27.772Z,102278.08
2023-05-08T16:46:01.062Z,102277.94
2023-05-08T16:48:33.636Z,102275.58
2023-05-08T16:51:09.361Z,102278.79
2023-05-08T16:53:43.484Z,102275.98
2023-05-08T16:56:17.712Z,102277.29
2023-05-08T16:58:51.192Z,102273.84
2023-05-08T17:01:23.878Z,102274.81
2023-05-08T17:03:56.986Z,102278.90
2023-05-08T17:06:29.542Z,102278.11
2023-05-08T17:09:01.611Z,102275.73
2023-05-08T17:11:34.128Z,102275.05
2023-05-08T17:14:10.621Z,102275.64
2023-05-08T17:16:48.137Z,102274.86
2023-05-08T17:19:19.313Z,102276.20
2023-05-08T17:21:52.940Z,102277.06
2023-05-08T17:24:26.406Z,102274.75
2023-05-08T17:26:59.494Z,102275.25
2023-05-08T17:29:31.345Z,102275.85
2023-05-08T17:32:06.895Z,102275.05
2023-05-08T17:34:39.267Z,102273.52
2023-05-08T17:37:19.632Z,102279.89
2023-05-08T17:39:50.452Z,102280.13
2023-05-08T17:42:22.030Z,102279.40
2023-05-08T17:44:55.734Z,102280.11
2023-05-08T17:47:27.591Z,102283.23
2023-05-08T17:50:01.015Z,102286.88
2023-05-08T17:52:39.468Z,102288.14
2023-05-08T17:55:14.606Z,102290.45
2023-05-08T17:57:49.473Z,102294.01
2023-05-08T18:00:29.861Z,102295.41
2023-05-08T18:03:03.841Z,102300.58
2023-05-08T18:05:36.438Z,102304.62
2023-05-08T18:08:09.628Z,102303.14
2023-05-08T18:10:40.742Z,102303.30
2023-05-08T18:13:12.714Z,102304.91
2023-05-08T18:15:44.799Z,102309.34
2023-05-08T18:18:20.154Z,102313.58
2023-05-08T18:20:55.719Z,102317.54
2023-05-08T18:23:26.638Z,102322.30
2023-05-08T18:25:59.863Z,102322.39
2023-05-08T18:28:31.637Z,102325.09
2023-05-08T18:31:06.384Z,102325.07
2023-05-08T18:33:41.792Z,102323.09
2023-05-08T18:36:15.840Z,102323.78
2023-05-08T18:38:57.351Z,102326.32
2023-05-08T18:41:33.246Z,102328.00
2023-05-08T18:44:11.171Z,102332.59
2023-05-08T18:46:43.490Z,102333.77
2023-05-08T18:49:17.109Z,102338.17
2023-05-08T18:51:47.185Z,102333.04
2023-05-08T18:54:20.469Z,102335.88
2023-05-08T18:56:55.602Z,102341.34
2023-05-08T18:59:35.857Z,102340.88
2023-05-08T19:02:09.855Z,102344.48
2023-05-08T19:04:41.272Z,102344.36
2023-05-08T19:07:15.339Z,102348.64
2023-05-08T19:09:48.789Z,102345.71
2023-05-08T19:12:22.438Z,102351.30
2023-05-08T19:14:55.366Z,102349.34
2023-05-08T19:17:28.881Z,102353.36
2023-05-08T19:20:10.072Z,102355.33
2023-05-08T19:22:48.157Z,102355.66
2023-05-08T19:25:21.633Z,102355.80
2023-05-08T19:27:56.841Z,102359.87
2023-05-08T19:30:27.165Z,102357.70
2023-05-08T19:33:11.012Z,102352.48
2023-05-08T19:35:43.283Z,102355.50
2023-05-08T19:38:16.731Z,102353.09
2023-05-08T19:40:57.315Z,102353.22
2023-05-08T19:43:31.281Z,102350.41
2023-05-08T19:46:08.738Z,102349.67
2023-05-08T19:48:40.895Z,102348.02
2023-05-08T19:51:17.250Z,102348.92
2023-05-08T19:53:51.369Z,102348.95
2023-05-08T19:56:23.869Z,102349.40
2023-05-08T19:59:06.798Z,102351.09
2023-05-08T20:01:39.290Z,102349.16
2023-05-08T20:04:12.182Z,102350.76
2023-05-08T20:06:51.302Z,102350.55
2023-05-08T20:09:23.046Z,102348.21
2023-05-08T20:12:01.688Z,102347.35
2023-05-08T20:14:33.662Z,102340.57
2023-05-08T20:17:10.553Z,102340.20
2023-05-08T20:19:42.459Z,102339.10
2023-05-08T20:22:15.877Z,102334.88
2023-05-08T20:24:48.387Z,102334.29
2023-05-08T20:27:21.877Z,102335.36
2023-05-08T20:29:53.874Z,102335.85
2023-05-08T20:32:30.548Z,102339.65
2023-05-08T20:35:03.598Z,102333.11
2023-05-08T20:37:34.695Z,102333.83
2023-05-08T20:40:12.756Z,102332.52
2023-05-08T20:42:47.418Z,102335.77
2023-05-08T20:45:21.676Z,102337.70
2023-05-08T20:47:53.587Z,102336.79
2023-05-08T20:50:32.826Z,102334.23
2023-05-08T20:53:12.866Z,102332.56
2023-05-08T20:55:46.112Z,102330.29
2023-05-08T20:58:17.475Z,102328.94
2023-05-08T21:00:52.916Z,102331.24
2023-05-08T21:03:26.296Z,102327.48
2023-05-08T21:05:57.430Z,102329.77
2023-05-08T21:08:30.176Z,102333.34
2023-05-08T21:11:38.214Z,102331.29
2023-05-08T21:14:19.353Z,102330.14
2023-05-08T21:16:53.371Z,102336.77
2023-05-08T21:19:29.901Z,102335.28
2023-05-08T21:22:03.464Z,102339.62
2023-05-08T21:24:38.743Z,102338.72
2023-05-08T21:27:11.980Z,102339.98
2023-05-08T21:29:45.198Z,102338.80
2023-05-08T21:32:17.275Z,102335.79
2023-05-08T21:34:49.395Z,102340.44
2023-05-08T21:37:21.477Z,102339.02
2023-05-08T21:39:56.829Z,102336.67
2023-05-08T21:42:46.072Z,102336.73
2023-05-08T21:45:19.220Z,102338.23
2023-05-08T21:47:55.262Z,102340.81
2023-05-08T21:50:28.689Z,102337.60
2023-05-08T21:53:03.898Z,102335.71
2023-05-08T21:55:39.423Z,102334.67
2023-05-08T21:58:13.429Z,102339.44
2023-05-08T22:00:43.979Z,102335.41
2023-05-08T22:03:18.896Z,102336.08
2023-05-08T22:05:53.110Z,102336.67
2023-05-08T22:08:27.370Z,102338.33
2023-05-08T22:11:00.049Z,102337.34
2023-05-08T22:13:32.448Z,102340.42
2023-05-08T22:16:05.388Z,102342.73
2023-05-08T22:18:43.343Z,102339.45
2023-05-08T22:21:16.219Z,102336.96
2023-05-08T22:23:52.065Z,102337.38
2023-05-08T22:26:31.734Z,102336.85
2023-05-08T22:29:05.685Z,102337.37
2023-05-08T22:31:40.191Z,102335.38
2023-05-08T22:34:21.444Z,102337.23
2023-05-08T22:36:58.212Z,102343.82
2023-05-08T22:39:28.857Z,102344.23
2023-05-08T22:42:09.146Z,102342.16
2023-05-08T22:45:43.981Z,102343.46
2023-05-08T22:48:25.268Z,102340.73
2023-05-08T22:51:12.316Z,102344.67
2023-05-08T22:53:46.152Z,102342.20
2023-05-08T22:56:18.970Z,102341.39
2023-05-08T22:58:54.662Z,102342.86
2023-05-08T23:01:28.028Z,102335.91
2023-05-08T23:03:59.492Z,102334.63
2023-05-08T23:06:33.523Z,102335.08
2023-05-08T23:09:07.308Z,102338.18
2023-05-08T23:11:40.569Z,102338.91
2023-05-08T23:14:12.856Z,102335.38
2023-05-08T23:16:46.210Z,102339.02
2023-05-08T23:19:18.829Z,102340.01
2023-05-08T23:21:53.968Z,102338.95
2023-05-08T23:24:35.399Z,102345.09
2023-05-08T23:27:08.297Z,102349.95
2023-05-08T23:29:39.902Z,102348.34
2023-05-08T23:32:13.826Z,102350.48
2023-05-08T23:34:46.763Z,102350.71
2023-05-08T23:37:19.189Z,102347.54
2023-05-08T23:39:49.687Z,102344.33
2023-05-08T23:42:22.910Z,102345.52
2023-05-08T23:44:56.295Z,102350.28
2023-05-08T23:47:28.599Z,102352.98
2023-05-08T23:50:03.341Z,102352.28
2023-05-08T23:52:36.431Z,102350.77
2023-05-08T23:55:14.534Z,102348.48
2023-05-08T23:57:47.027Z,102348.64
